createdAt,value
2022-09-17T00:00:34.827Z,10.57
2022-09-17T00:03:33.825Z,14.85
2022-09-17T00:06:24.117Z,9.57
2022-09-17T00:09:12.967Z,10.27
2022-09-17T00:12:02.137Z,8.73
2022-09-17T00:14:51.095Z,12.00
2022-09-17T00:17:39.388Z,8.90
2022-09-17T00:20:28.607Z,11.60
2022-09-17T00:23:17.186Z,6.80
2022-09-17T00:26:07.346Z,8.37
2022-09-17T00:28:57.536Z,12.50
2022-09-17T00:31:46.595Z,10.70
2022-09-17T00:34:36.272Z,12.27
2022-09-17T00:37:25.642Z,9.30
2022-09-17T00:40:14.219Z,11.87
2022-09-17T00:43:03.770Z,14.07
2022-09-17T00:45:53.750Z,12.37
2022-09-17T00:48:42.139Z,9.57
2022-09-17T00:51:36.106Z,9.13
2022-09-17T00:54:25.950Z,9.20
2022-09-17T00:57:16.075Z,9.43
2022-09-17T01:00:07.485Z,7.60
2022-09-17T01:02:57.136Z,10.93
2022-09-17T01:05:49.802Z,9.77
2022-09-17T01:08:51.846Z,7.47
2022-09-17T01:14:51.849Z,9.00
2022-09-17T01:17:45.273Z,8.40
2022-09-17T01:21:15.245Z,8.13
2022-09-17T01:24:37.821Z,9.77
2022-09-17T01:28:02.774Z,8.68
2022-09-17T01:31:19.221Z,6.87
2022-09-17T01:34:20.685Z,9.80
2022-09-17T01:37:15.357Z,9.83
2022-09-17T01:40:09.023Z,9.70
2022-09-17T01:43:05.382Z,6.87
2022-09-17T01:46:00.690Z,10.27
2022-09-17T01:48:56.632Z,9.50
2022-09-17T01:51:48.917Z,11.63
2022-09-17T01:57:36.566Z,8.70
2022-09-17T02:00:25.556Z,7.30
2022-09-17T02:03:18.463Z,9.40
2022-09-17T02:06:13.088Z,10.00
2022-09-17T02:09:06.124Z,10.07
2022-09-17T02:12:00.633Z,7.60
2022-09-17T02:14:52.304Z,11.10
2022-09-17T02:17:46.552Z,10.93
2022-09-17T02:20:43.034Z,7.17
2022-09-17T02:23:37.790Z,8.40
2022-09-17T02:26:28.846Z,7.90
2022-09-17T02:29:26.149Z,16.70
2022-09-17T02:32:15.111Z,28.17
2022-09-17T02:35:03.866Z,26.10
2022-09-17T02:37:52.828Z,27.37
2022-09-17T02:40:50.557Z,14.43
2022-09-17T02:43:47.744Z,9.13
2022-09-17T02:46:57.641Z,10.37
2022-09-17T02:50:02.939Z,9.57
2022-09-17T02:53:06.239Z,14.77
2022-09-17T02:56:07.075Z,7.92
2022-09-17T02:59:01.565Z,11.03
2022-09-17T03:01:55.834Z,6.10
2022-09-17T03:04:46.389Z,5.97
2022-09-17T03:07:35.613Z,5.90
2022-09-17T03:10:27.557Z,7.13
2022-09-17T03:16:05.819Z,5.90
2022-09-17T03:18:54.731Z,6.27
2022-09-17T03:21:44.091Z,8.70
2022-09-17T03:24:32.650Z,8.33
2022-09-17T03:27:22.223Z,7.87
2022-09-17T03:30:12.270Z,7.20
2022-09-17T03:33:01.118Z,6.87
2022-09-17T03:35:50.290Z,7.43
2022-09-17T03:38:39.082Z,5.63
2022-09-17T03:41:28.662Z,6.00
2022-09-17T03:44:18.811Z,4.87
2022-09-17T03:47:08.222Z,5.93
2022-09-17T03:50:14.613Z,6.83
2022-09-17T03:53:03.139Z,6.63
2022-09-17T03:55:52.299Z,8.83
2022-09-17T03:58:41.053Z,7.43
2022-09-17T04:01:29.849Z,8.57
2022-09-17T04:04:18.973Z,5.17
2022-09-17T04:07:07.936Z,10.03
2022-09-17T04:09:56.893Z,6.47
2022-09-17T04:12:45.855Z,4.93
2022-09-17T04:15:34.200Z,6.63
2022-09-17T04:18:23.978Z,7.37
2022-09-17T04:21:12.939Z,5.70
2022-09-17T04:24:02.309Z,7.10
2022-09-17T04:26:51.472Z,6.80
2022-09-17T04:29:40.057Z,6.53
2022-09-17T04:32:28.983Z,6.43
2022-09-17T04:35:18.503Z,9.97
2022-09-17T04:38:06.505Z,15.93
2022-09-17T04:40:56.886Z,12.57
2022-09-17T04:43:46.900Z,10.83
2022-09-17T04:46:35.680Z,9.00
2022-09-17T04:49:24.380Z,6.33
2022-09-17T04:52:13.133Z,11.43
2022-09-17T04:55:02.097Z,10.33
2022-09-17T04:57:53.719Z,8.90
2022-09-17T05:00:42.911Z,9.83
2022-09-17T05:03:31.432Z,7.90
2022-09-17T05:06:20.188Z,10.77
2022-09-17T05:09:09.763Z,9.60
2022-09-17T05:11:58.519Z,9.10
2022-09-17T05:14:47.478Z,6.67
2022-09-17T05:17:35.824Z,6.80
2022-09-17T05:20:24.577Z,7.37
2022-09-17T05:23:13.334Z,8.37
2022-09-17T05:26:02.376Z,6.57
2022-09-17T05:28:51.456Z,8.77
2022-09-17T05:31:40.665Z,7.03
2022-09-17T05:34:29.781Z,7.33
2022-09-17T05:37:17.931Z,5.83
2022-09-17T05:40:10.492Z,6.63
2022-09-17T05:45:50.133Z,6.37
2022-09-17T05:48:39.300Z,7.57
2022-09-17T05:51:28.460Z,6.70
2022-09-17T05:54:17.220Z,8.97
2022-09-17T05:57:07.126Z,6.43
2022-09-17T05:59:55.755Z,5.87
2022-09-17T06:02:44.794Z,8.17
2022-09-17T06:05:33.674Z,7.05
2022-09-17T06:08:22.632Z,7.07
2022-09-17T06:11:11.366Z,5.90
2022-09-17T06:13:59.780Z,8.43
2022-09-17T06:16:52.173Z,8.30
2022-09-17T06:19:40.928Z,7.87
2022-09-17T06:22:30.883Z,5.77
2022-09-17T06:25:20.283Z,8.03
2022-09-17T06:28:08.272Z,12.13
2022-09-17T06:31:01.434Z,8.07
2022-09-17T06:33:50.852Z,7.57
2022-09-17T06:36:39.406Z,10.40
2022-09-17T06:39:27.746Z,9.80
2022-09-17T06:42:16.707Z,10.23
2022-09-17T06:45:11.106Z,9.30
2022-09-17T06:48:07.085Z,8.40
2022-09-17T06:50:56.693Z,9.50
2022-09-17T06:53:44.959Z,9.00
2022-09-17T06:56:34.005Z,10.60
2022-09-17T06:59:22.549Z,11.53
2022-09-17T07:02:11.548Z,10.13
2022-09-17T07:05:00.068Z,6.77
2022-09-17T07:07:48.819Z,9.87
2022-09-17T07:10:37.776Z,9.47
2022-09-17T07:13:26.941Z,8.70
2022-09-17T07:16:15.755Z,9.27
2022-09-17T07:19:06.950Z,9.50
2022-09-17T07:21:55.460Z,9.53
2022-09-17T07:24:44.625Z,9.60
2022-09-17T07:27:33.381Z,11.33
2022-09-17T07:30:21.937Z,9.03
2022-09-17T07:33:11.300Z,7.53
2022-09-17T07:36:03.127Z,11.17
2022-09-17T07:41:39.409Z,7.73
2022-09-17T07:44:28.780Z,9.53
2022-09-17T07:47:17.532Z,7.23
2022-09-17T07:50:09.122Z,6.73
2022-09-17T07:52:57.501Z,7.65
2022-09-17T07:55:54.103Z,6.57
2022-09-17T07:58:42.342Z,8.27
2022-09-17T08:01:33.765Z,7.40
2022-09-17T08:04:23.173Z,7.60
2022-09-17T08:07:13.523Z,6.30
2022-09-17T08:10:02.321Z,6.00
2022-09-17T08:12:55.338Z,9.30
2022-09-17T08:15:44.169Z,7.27
2022-09-17T08:18:33.914Z,18.10
2022-09-17T08:21:23.698Z,29.73
2022-09-17T08:24:13.268Z,13.17
2022-09-17T08:27:02.021Z,10.67
2022-09-17T08:29:50.983Z,8.27
2022-09-17T08:32:39.735Z,9.63
2022-09-17T08:35:28.086Z,9.97
2022-09-17T08:38:16.616Z,13.00
2022-09-17T08:41:19.319Z,11.73
2022-09-17T08:44:21.998Z,9.97
2022-09-17T08:47:19.906Z,14.57
2022-09-17T08:50:15.531Z,12.67
2022-09-17T08:53:37.992Z,7.97
2022-09-17T08:59:24.348Z,11.17
2022-09-17T09:02:25.710Z,9.70
2022-09-17T09:05:17.356Z,11.57
2022-09-17T09:10:58.139Z,7.63
2022-09-17T09:13:49.957Z,8.13
2022-09-17T09:16:41.588Z,10.68
2022-09-17T09:19:33.992Z,13.33
2022-09-17T09:22:46.203Z,12.43
2022-09-17T09:25:46.428Z,10.40
2022-09-17T09:28:45.146Z,7.73
2022-09-17T09:32:15.776Z,9.30
2022-09-17T09:35:16.388Z,11.47
2022-09-17T09:38:13.129Z,8.83
2022-09-17T09:41:09.667Z,7.63
2022-09-17T09:44:04.471Z,7.20
2022-09-17T09:47:31.823Z,9.07
2022-09-17T09:51:04.609Z,6.33
2022-09-17T09:54:00.126Z,6.03
2022-09-17T09:56:57.896Z,7.80
2022-09-17T09:59:46.645Z,5.77
2022-09-17T10:02:35.904Z,13.93
2022-09-17T10:05:25.348Z,6.77
2022-09-17T10:08:15.140Z,9.30
2022-09-17T10:11:06.174Z,11.53
2022-09-17T10:14:13.975Z,11.07
2022-09-17T10:17:20.146Z,8.97
2022-09-17T10:20:20.736Z,6.47
2022-09-17T10:23:14.140Z,10.67
2022-09-17T10:26:03.825Z,10.67
2022-09-17T10:28:54.108Z,10.57
2022-09-17T10:31:50.565Z,9.00
2022-09-17T10:34:41.465Z,8.33
2022-09-17T10:37:43.976Z,8.95
2022-09-17T10:40:33.639Z,16.20
2022-09-17T10:43:25.834Z,6.60
2022-09-17T10:46:25.350Z,10.83
2022-09-17T10:49:29.764Z,6.23
2022-09-17T10:52:27.055Z,6.87
2022-09-17T10:55:26.062Z,6.97
2022-09-17T10:58:30.303Z,7.37
2022-09-17T11:01:29.853Z,4.57
2022-09-17T11:04:25.988Z,6.13
2022-09-17T11:07:38.693Z,6.67
2022-09-17T11:10:34.410Z,5.83
2022-09-17T11:13:34.223Z,6.93
2022-09-17T11:16:40.068Z,6.73
2022-09-17T11:19:45.116Z,10.17
2022-09-17T11:22:50.049Z,7.23
2022-09-17T11:25:54.354Z,7.00
2022-09-17T11:29:00.276Z,5.53
2022-09-17T11:31:56.285Z,6.00
2022-09-17T11:34:53.329Z,5.97
2022-09-17T11:37:48.535Z,5.93
2022-09-17T11:40:42.963Z,8.10
2022-09-17T11:43:35.872Z,7.60
2022-09-17T11:46:29.244Z,5.13
2022-09-17T11:49:29.743Z,5.10
2022-09-17T11:52:23.726Z,8.40
2022-09-17T11:55:23.780Z,16.80
2022-09-17T11:58:15.796Z,11.97
2022-09-17T12:03:58.802Z,6.90
2022-09-17T12:06:54.611Z,6.60
2022-09-17T12:09:45.528Z,5.53
2022-09-17T12:12:49.783Z,5.83
2022-09-17T12:15:46.890Z,7.70
2022-09-17T12:18:50.960Z,4.53
2022-09-17T12:21:44.213Z,4.20
2022-09-17T12:24:33.451Z,5.70
2022-09-17T12:27:38.340Z,9.27
2022-09-17T12:30:36.150Z,5.43
2022-09-17T12:33:33.713Z,6.33
2022-09-17T12:36:47.996Z,7.13
2022-09-17T12:39:56.363Z,7.43
2022-09-17T12:43:10.045Z,5.63
2022-09-17T12:46:17.636Z,10.40
2022-09-17T12:49:34.645Z,6.43
2022-09-17T12:52:40.595Z,6.87
2022-09-17T12:55:54.334Z,6.33
2022-09-17T12:58:59.135Z,6.20
2022-09-17T13:01:52.765Z,8.87
2022-09-17T13:05:02.017Z,9.63
2022-09-17T13:08:24.686Z,6.70
2022-09-17T13:14:25.551Z,7.17
2022-09-17T13:17:22.328Z,7.27
2022-09-17T13:20:19.806Z,7.37
2022-09-17T13:23:10.280Z,9.70
2022-09-17T13:26:00.469Z,7.43
2022-09-17T13:28:51.703Z,8.10
2022-09-17T13:31:50.472Z,7.90
2022-09-17T13:34:39.843Z,9.13
2022-09-17T13:37:29.827Z,6.13
2022-09-17T13:40:23.743Z,9.40
2022-09-17T13:43:15.731Z,9.00
2022-09-17T13:46:12.116Z,9.00
2022-09-17T13:49:06.105Z,9.13
2022-09-17T13:51:56.746Z,9.47
2022-09-17T13:54:46.527Z,7.07
2022-09-17T13:57:46.745Z,7.40
2022-09-17T14:00:55.841Z,8.30
2022-09-17T14:03:56.495Z,8.03
2022-09-17T14:06:53.098Z,8.23
2022-09-17T14:09:56.578Z,9.33
2022-09-17T14:13:26.403Z,6.87
2022-09-17T14:16:36.401Z,11.17
2022-09-17T14:19:33.647Z,10.50
2022-09-17T14:22:25.585Z,9.67
2022-09-17T14:25:19.650Z,6.60
2022-09-17T14:28:18.892Z,5.63
2022-09-17T14:31:16.936Z,5.40
2022-09-17T14:34:12.089Z,7.50
2022-09-17T14:37:02.174Z,6.13
2022-09-17T14:39:52.340Z,8.63
2022-09-17T14:42:41.713Z,8.20
2022-09-17T14:45:33.844Z,8.97
2022-09-17T14:48:29.223Z,8.87
2022-09-17T14:51:29.153Z,7.57
2022-09-17T14:54:27.253Z,9.10
2022-09-17T14:57:27.070Z,17.77
2022-09-17T15:00:24.575Z,7.70
2022-09-17T15:03:23.226Z,7.27
2022-09-17T15:06:21.571Z,8.70
2022-09-17T15:09:16.031Z,7.30
2022-09-17T15:12:07.138Z,9.30
2022-09-17T15:14:57.226Z,8.75
2022-09-17T15:17:46.216Z,8.00
2022-09-17T15:20:35.687Z,7.63
2022-09-17T15:23:27.468Z,8.97
2022-09-17T15:26:22.950Z,6.70
2022-09-17T15:29:13.520Z,10.10
2022-09-17T15:32:06.125Z,9.10
2022-09-17T15:35:30.529Z,8.77
2022-09-17T15:38:27.050Z,6.40
2022-09-17T15:41:41.480Z,8.87
2022-09-17T15:44:31.654Z,9.27
2022-09-17T15:47:50.053Z,11.40
2022-09-17T15:50:53.414Z,7.10
2022-09-17T15:53:53.769Z,9.63
2022-09-17T15:56:43.214Z,7.50
2022-09-17T15:59:34.488Z,8.77
2022-09-17T16:02:31.664Z,7.85
2022-09-17T16:05:54.177Z,8.60
2022-09-17T16:08:46.953Z,11.20
2022-09-17T16:11:35.738Z,11.60
2022-09-17T16:14:24.297Z,11.13
2022-09-17T16:17:27.943Z,10.23
2022-09-17T16:20:21.352Z,10.33
2022-09-17T16:23:10.417Z,10.20
2022-09-17T16:25:59.173Z,10.23
2022-09-17T16:28:50.324Z,11.83
2022-09-17T16:34:27.690Z,9.80
2022-09-17T16:37:16.445Z,14.27
2022-09-17T16:40:08.834Z,13.83
2022-09-17T16:42:59.868Z,13.00
2022-09-17T16:46:00.254Z,13.38
2022-09-17T16:48:51.948Z,14.37
2022-09-17T16:54:27.479Z,12.63
2022-09-17T16:57:15.959Z,12.73
2022-09-17T17:00:10.716Z,13.57
2022-09-17T17:02:59.258Z,16.37
2022-09-17T17:05:47.958Z,11.00
2022-09-17T17:08:37.125Z,11.97
2022-09-17T17:11:27.430Z,28.17
2022-09-17T17:14:16.077Z,57.47
2022-09-17T17:17:04.619Z,64.03
2022-09-17T17:19:52.967Z,53.93
2022-09-17T17:22:42.874Z,52.43
2022-09-17T17:25:32.114Z,51.83
2022-09-17T17:28:21.074Z,54.23
2022-09-17T17:31:11.527Z,43.20
2022-09-17T17:33:59.812Z,28.70
2022-09-17T17:36:50.815Z,29.10
2022-09-17T17:39:38.963Z,31.97
2022-09-17T17:42:35.219Z,30.67
2022-09-17T17:45:24.465Z,30.60
2022-09-17T17:48:13.009Z,25.27
2022-09-17T17:51:05.169Z,27.00
2022-09-17T17:53:54.001Z,20.23
2022-09-17T17:56:42.552Z,19.97
2022-09-17T17:59:30.757Z,19.37
2022-09-17T18:02:19.794Z,19.07
2022-09-17T18:05:11.190Z,18.57
2022-09-17T18:07:59.829Z,21.07
2022-09-17T18:10:59.709Z,21.20
2022-09-17T18:13:50.793Z,26.93
2022-09-17T18:16:39.854Z,28.30
2022-09-17T18:19:28.157Z,23.73
2022-09-17T18:22:17.898Z,18.23
2022-09-17T18:25:09.230Z,17.63
2022-09-17T18:27:58.321Z,17.98
2022-09-17T18:30:48.712Z,20.13
2022-09-17T18:33:37.465Z,18.87
2022-09-17T18:36:27.041Z,17.05
2022-09-17T18:39:56.455Z,14.77
2022-09-17T18:42:25.449Z,17.17
2022-09-17T18:45:13.991Z,17.50
2022-09-17T18:48:04.795Z,16.27
2022-09-17T18:51:00.184Z,19.73
2022-09-17T18:53:51.595Z,17.13
2022-09-17T18:56:41.930Z,17.87
2022-09-17T18:59:30.365Z,17.47
2022-09-17T19:02:19.716Z,17.40
2022-09-17T19:05:09.976Z,13.60
2022-09-17T19:07:58.368Z,12.83
2022-09-17T19:10:52.658Z,13.47
2022-09-17T19:13:43.047Z,14.87
2022-09-17T19:16:32.097Z,22.93
2022-09-17T19:19:20.968Z,12.53
2022-09-17T19:22:09.518Z,14.70
2022-09-17T19:24:58.080Z,11.80
2022-09-17T19:27:47.030Z,15.47
2022-09-17T19:30:36.403Z,15.00
2022-09-17T19:33:24.949Z,15.67
2022-09-17T19:36:16.391Z,17.20
2022-09-17T19:39:05.329Z,17.05
2022-09-17T19:41:54.697Z,14.75
2022-09-17T19:44:43.864Z,16.85
2022-09-17T19:47:33.233Z,13.70
2022-09-17T19:50:21.989Z,15.00
2022-09-17T19:53:10.745Z,19.00
2022-09-17T19:55:59.298Z,18.17
2022-09-17T19:58:48.297Z,15.13
2022-09-17T20:01:37.068Z,20.43
2022-09-17T20:04:26.380Z,15.83
2022-09-17T20:07:14.930Z,22.17
2022-09-17T20:10:04.914Z,22.30
2022-09-17T20:12:53.667Z,19.47
2022-09-17T20:15:42.062Z,15.60
2022-09-17T20:18:31.382Z,15.63
2022-09-17T20:21:21.982Z,18.63
2022-09-17T20:24:11.183Z,14.80
2022-09-17T20:26:59.497Z,16.27
2022-09-17T20:29:48.464Z,13.80
2022-09-17T20:32:37.824Z,12.70
2022-09-17T20:35:26.577Z,12.20
2022-09-17T20:41:24.157Z,10.27
2022-09-17T20:44:14.357Z,12.40
2022-09-17T20:47:05.174Z,10.87
2022-09-17T20:49:55.133Z,12.37
2022-09-17T20:52:44.099Z,11.33
2022-09-17T20:55:32.847Z,10.50
2022-09-17T20:58:21.401Z,10.60
2022-09-17T21:01:12.996Z,13.30
2022-09-17T21:04:04.386Z,12.03
2022-09-17T21:06:54.768Z,8.85
2022-09-17T21:09:43.461Z,11.47
2022-09-17T21:12:31.933Z,11.57
2022-09-17T21:15:20.895Z,10.30
2022-09-17T21:18:09.853Z,10.17
2022-09-17T21:21:00.635Z,8.67
2022-09-17T21:23:50.460Z,11.90
2022-09-17T21:26:39.194Z,10.80
2022-09-17T21:29:27.746Z,12.13
2022-09-17T21:32:16.087Z,14.33
2022-09-17T21:35:05.457Z,10.10
2022-09-17T21:37:55.240Z,11.63
2022-09-17T21:40:44.833Z,10.07
2022-09-17T21:43:34.388Z,8.70
2022-09-17T21:46:25.849Z,13.33
2022-09-17T21:49:15.897Z,12.20
2022-09-17T21:52:05.365Z,13.17
2022-09-17T21:54:53.010Z,11.67
2022-09-17T21:57:42.055Z,9.80
2022-09-17T22:00:30.811Z,10.83
2022-09-17T22:03:19.414Z,9.83
2022-09-17T22:06:10.622Z,11.60
2022-09-17T22:09:00.785Z,11.87
2022-09-17T22:11:49.724Z,8.53
2022-09-17T22:14:38.683Z,10.00
2022-09-17T22:17:27.230Z,14.33
2022-09-17T22:20:16.396Z,14.80
2022-09-17T22:23:05.536Z,13.30
2022-09-17T22:26:02.718Z,11.97
2022-09-17T22:28:52.044Z,12.10
2022-09-17T22:31:41.562Z,12.37
2022-09-17T22:34:30.206Z,12.13
2022-09-17T22:37:18.967Z,11.23
2022-09-17T22:40:11.871Z,11.13
2022-09-17T22:43:00.982Z,11.13
2022-09-17T22:45:49.528Z,13.37
2022-09-17T22:48:38.696Z,12.67
2022-09-17T22:51:28.613Z,12.43
2022-09-17T22:54:18.475Z,13.60
2022-09-17T22:57:07.827Z,13.13
2022-09-17T22:59:56.239Z,12.63
2022-09-17T23:02:44.959Z,13.57
2022-09-17T23:05:34.094Z,11.57
2022-09-17T23:08:23.056Z,11.60
2022-09-17T23:11:19.086Z,17.03
2022-09-17T23:14:09.495Z,17.33
2022-09-17T23:16:58.126Z,14.07
2022-09-17T23:19:46.677Z,13.20
2022-09-17T23:22:35.633Z,14.53
2022-09-17T23:25:24.393Z,15.20
2022-09-17T23:28:13.145Z,14.77
2022-09-17T23:31:08.486Z,14.30
2022-09-17T23:33:59.873Z,12.70
2022-09-17T23:36:49.654Z,11.33
2022-09-17T23:39:38.223Z,10.73
2022-09-17T23:42:26.959Z,11.63
2022-09-17T23:45:15.920Z,13.13
2022-09-17T23:48:04.880Z,11.63
2022-09-17T23:50:53.844Z,12.87
2022-09-17T23:53:42.798Z,13.37
2022-09-17T23:56:31.350Z,15.67
2022-09-17T23:59:20.105Z,13.70
